createdAt,value
2018-12-27T00:01:27.451Z,26.53
2018-12-27T00:03:56.334Z,23.97
2018-12-27T00:06:25.332Z,26.27
2018-12-27T00:08:54.835Z,24.43
2018-12-27T00:11:23.690Z,24.47
2018-12-27T00:13:52.615Z,24.90
2018-12-27T00:16:21.492Z,28.20
2018-12-27T00:18:50.420Z,27.63
2018-12-27T00:21:19.974Z,25.73
2018-12-27T00:23:48.833Z,32.40
2018-12-27T00:26:17.671Z,24.30
2018-12-27T00:28:46.748Z,26.50
2018-12-27T00:31:16.150Z,25.60
2018-12-27T00:33:45.175Z,35.33
2018-12-27T00:36:14.179Z,24.33
2018-12-27T00:38:43.085Z,26.20
2018-12-27T00:41:12.270Z,28.07
2018-12-27T00:43:41.262Z,26.43
2018-12-27T00:46:10.250Z,30.77
2018-12-27T00:48:39.320Z,29.10
2018-12-27T00:51:08.528Z,27.87
2018-12-27T00:53:40.405Z,29.50
2018-12-27T00:56:09.521Z,33.77
2018-12-27T00:58:38.769Z,23.00
2018-12-27T01:01:07.885Z,25.10
2018-12-27T01:03:36.911Z,29.23
2018-12-27T01:06:05.938Z,27.50
2018-12-27T01:08:34.991Z,29.00
2018-12-27T01:11:04.061Z,27.37
2018-12-27T01:13:33.159Z,25.90
2018-12-27T01:16:02.389Z,28.60
2018-12-27T01:18:31.529Z,24.40
2018-12-27T01:21:00.536Z,28.53
2018-12-27T01:23:29.683Z,30.87
2018-12-27T01:25:58.673Z,27.07
2018-12-27T01:28:27.732Z,26.60
2018-12-27T01:30:57.191Z,25.17
2018-12-27T01:33:26.218Z,25.40
2018-12-27T01:35:55.262Z,27.60
2018-12-27T01:38:24.241Z,27.60
2018-12-27T01:40:53.856Z,39.67
2018-12-27T01:43:23.021Z,29.53
2018-12-27T01:45:52.004Z,30.73
2018-12-27T01:48:20.981Z,28.87
2018-12-27T01:50:50.073Z,28.40
2018-12-27T01:53:20.719Z,28.20
2018-12-27T01:55:49.721Z,27.43
2018-12-27T01:58:18.701Z,19.47
2018-12-27T02:00:47.646Z,32.73
2018-12-27T02:03:16.678Z,24.20
2018-12-27T02:05:47.166Z,22.90
2018-12-27T02:08:16.347Z,27.23
2018-12-27T02:10:45.370Z,24.20
2018-12-27T02:13:15.153Z,23.80
2018-12-27T02:15:44.864Z,18.20
2018-12-27T02:18:14.029Z,20.73
2018-12-27T02:20:43.181Z,18.40
2018-12-27T02:23:41.498Z,15.97
2018-12-27T02:25:58.157Z,16.83
2018-12-27T02:28:27.332Z,21.47
2018-12-27T02:30:56.669Z,19.63
2018-12-27T02:33:25.836Z,18.60
2018-12-27T02:35:54.878Z,17.63
2018-12-27T02:38:24.071Z,20.80
2018-12-27T02:40:53.087Z,21.13
2018-12-27T02:43:22.252Z,18.87
2018-12-27T02:45:51.365Z,20.80
2018-12-27T02:48:20.523Z,16.20
2018-12-27T02:50:49.495Z,16.23
2018-12-27T02:53:18.613Z,17.33
2018-12-27T02:55:47.769Z,17.63
2018-12-27T02:58:17.142Z,15.67
2018-12-27T03:00:46.590Z,16.30
2018-12-27T03:03:15.438Z,18.40
2018-12-27T03:05:44.489Z,19.87
2018-12-27T03:08:13.466Z,14.23
2018-12-27T03:10:42.507Z,13.70
2018-12-27T03:13:13.455Z,17.97
2018-12-27T03:15:42.508Z,15.70
2018-12-27T03:18:11.601Z,20.10
2018-12-27T03:20:40.813Z,17.60
2018-12-27T03:23:09.877Z,20.77
2018-12-27T03:25:38.779Z,21.77
2018-12-27T03:28:07.770Z,17.80
2018-12-27T03:30:37.004Z,24.90
2018-12-27T03:33:06.086Z,18.03
2018-12-27T03:35:35.019Z,24.80
2018-12-27T03:38:04.246Z,25.50
2018-12-27T03:40:33.160Z,17.87
2018-12-27T03:43:02.224Z,18.30
2018-12-27T03:45:31.278Z,26.07
2018-12-27T03:48:00.180Z,19.47
2018-12-27T03:50:29.294Z,20.27
2018-12-27T03:52:58.349Z,20.20
2018-12-27T03:55:27.276Z,18.40
2018-12-27T03:57:56.377Z,21.73
2018-12-27T04:00:26.190Z,19.67
2018-12-27T04:02:55.151Z,19.73
2018-12-27T04:05:25.826Z,19.77
2018-12-27T04:07:54.906Z,21.03
2018-12-27T04:10:24.617Z,19.37
2018-12-27T04:12:53.606Z,23.63
2018-12-27T04:15:22.494Z,18.83
2018-12-27T04:17:51.448Z,19.33
2018-12-27T04:20:20.346Z,19.53
2018-12-27T04:22:49.309Z,19.03
2018-12-27T04:25:18.491Z,25.47
2018-12-27T04:27:47.351Z,21.53
2018-12-27T04:30:16.800Z,22.60
2018-12-27T04:32:46.098Z,22.90
2018-12-27T04:35:15.414Z,21.00
2018-12-27T04:37:44.327Z,22.70
2018-12-27T04:40:13.207Z,21.20
2018-12-27T04:42:42.936Z,20.40
2018-12-27T04:45:11.824Z,24.67
2018-12-27T04:47:40.801Z,21.70
2018-12-27T04:50:09.792Z,26.37
2018-12-27T04:52:38.627Z,21.70
2018-12-27T04:55:07.472Z,25.43
2018-12-27T04:57:36.410Z,24.70
2018-12-27T05:00:07.037Z,21.27
2018-12-27T05:02:35.919Z,19.97
2018-12-27T05:05:05.297Z,24.77
2018-12-27T05:07:34.288Z,20.80
2018-12-27T05:10:03.386Z,20.13
2018-12-27T05:12:32.184Z,27.67
2018-12-27T05:15:01.101Z,22.30
2018-12-27T05:17:31.579Z,19.93
2018-12-27T05:20:00.478Z,20.33
2018-12-27T05:22:30.402Z,23.80
2018-12-27T05:24:59.233Z,20.63
2018-12-27T05:27:28.231Z,23.40
2018-12-27T05:29:57.002Z,26.63
2018-12-27T05:32:25.975Z,24.17
2018-12-27T05:34:54.894Z,21.93
2018-12-27T05:37:23.744Z,27.70
2018-12-27T05:39:52.677Z,22.07
2018-12-27T05:42:22.475Z,22.60
2018-12-27T05:44:51.376Z,20.23
2018-12-27T05:47:20.852Z,28.60
2018-12-27T05:49:49.721Z,19.70
2018-12-27T05:52:18.637Z,21.47
2018-12-27T05:54:48.142Z,27.47
2018-12-27T05:57:17.066Z,24.57
2018-12-27T05:59:46.018Z,24.60
2018-12-27T06:02:14.989Z,21.77
2018-12-27T06:04:43.875Z,28.67
2018-12-27T06:07:12.881Z,25.27
2018-12-27T06:09:41.643Z,22.23
2018-12-27T06:12:10.618Z,24.70
2018-12-27T06:14:39.613Z,25.43
2018-12-27T06:17:08.608Z,26.50
2018-12-27T06:19:37.542Z,25.13
2018-12-27T06:22:06.444Z,25.57
2018-12-27T06:24:36.546Z,25.20
2018-12-27T06:27:05.501Z,25.20
2018-12-27T06:29:34.564Z,29.20
2018-12-27T06:32:03.705Z,30.40
2018-12-27T06:34:32.640Z,25.33
2018-12-27T06:37:02.138Z,24.87
2018-12-27T06:39:34.126Z,19.87
2018-12-27T06:42:03.406Z,21.53
2018-12-27T06:44:32.316Z,23.27
2018-12-27T06:47:01.212Z,23.63
2018-12-27T06:49:30.909Z,26.97
2018-12-27T06:51:59.800Z,23.90
2018-12-27T06:54:28.770Z,22.10
2018-12-27T06:56:57.676Z,23.97
2018-12-27T06:59:28.111Z,21.20
2018-12-27T07:01:59.613Z,26.90
2018-12-27T07:04:28.499Z,24.83
2018-12-27T07:06:57.456Z,20.30
2018-12-27T07:09:26.381Z,18.00
2018-12-27T07:11:56.413Z,19.90
2018-12-27T07:14:25.552Z,23.07
2018-12-27T07:16:54.576Z,23.40
2018-12-27T07:19:23.482Z,21.87
2018-12-27T07:21:52.474Z,23.07
2018-12-27T07:24:21.306Z,19.77
2018-12-27T07:26:50.272Z,25.90
2018-12-27T07:29:19.239Z,27.47
2018-12-27T07:31:49.367Z,29.13
2018-12-27T07:34:18.405Z,26.80
2018-12-27T07:36:47.339Z,26.10
2018-12-27T07:39:16.603Z,22.43
2018-12-27T07:41:45.489Z,24.33
2018-12-27T07:44:14.451Z,37.90
2018-12-27T07:46:43.405Z,34.53
2018-12-27T07:49:12.338Z,20.47
2018-12-27T07:51:41.203Z,29.40
2018-12-27T07:54:10.182Z,21.03
2018-12-27T07:56:39.110Z,25.03
2018-12-27T07:59:08.110Z,26.03
2018-12-27T08:01:37.118Z,26.23
2018-12-27T08:04:06.122Z,26.73
2018-12-27T08:06:35.069Z,19.07
2018-12-27T08:09:04.937Z,18.07
2018-12-27T08:11:34.162Z,17.27
2018-12-27T08:14:03.112Z,18.53
2018-12-27T08:16:32.149Z,16.13
2018-12-27T08:19:02.419Z,16.90
2018-12-27T08:21:31.299Z,19.07
2018-12-27T08:24:01.307Z,16.70
2018-12-27T08:26:30.484Z,16.53
2018-12-27T08:28:59.446Z,11.97
2018-12-27T08:31:28.700Z,14.67
2018-12-27T08:33:57.706Z,16.00
2018-12-27T08:36:26.867Z,16.40
2018-12-27T08:38:55.793Z,18.37
2018-12-27T08:41:25.246Z,17.53
2018-12-27T08:43:54.166Z,19.00
2018-12-27T08:46:23.067Z,28.13
2018-12-27T08:48:52.003Z,25.07
2018-12-27T08:51:20.962Z,18.57
2018-12-27T08:53:49.856Z,26.13
2018-12-27T08:56:18.771Z,17.50
2018-12-27T08:58:47.604Z,16.80
2018-12-27T09:01:20.034Z,20.10
2018-12-27T09:03:48.939Z,20.20
2018-12-27T09:06:17.857Z,27.17
2018-12-27T09:08:46.752Z,29.93
2018-12-27T09:11:16.949Z,25.43
2018-12-27T09:13:45.804Z,27.33
2018-12-27T09:16:14.649Z,26.03
2018-12-27T09:18:43.512Z,26.67
2018-12-27T09:21:13.021Z,31.67
2018-12-27T09:23:42.114Z,22.23
2018-12-27T09:26:11.601Z,30.77
2018-12-27T09:28:40.439Z,26.67
2018-12-27T09:31:09.631Z,14.63
2018-12-27T09:33:38.701Z,22.63
2018-12-27T09:36:08.979Z,20.00
2018-12-27T09:38:37.844Z,19.60
2018-12-27T09:41:07.019Z,22.00
2018-12-27T09:43:35.943Z,18.80
2018-12-27T09:46:04.987Z,25.43
2018-12-27T09:48:33.791Z,24.30
2018-12-27T09:51:02.878Z,22.70
2018-12-27T09:53:31.636Z,18.07
2018-12-27T09:56:00.640Z,20.03
2018-12-27T09:58:29.512Z,22.90
2018-12-27T10:00:58.515Z,30.37
2018-12-27T10:03:27.383Z,23.20
2018-12-27T10:05:57.690Z,18.90
2018-12-27T10:08:26.612Z,27.13
2018-12-27T10:10:55.433Z,25.03
2018-12-27T10:13:24.813Z,16.77
2018-12-27T10:15:53.773Z,17.00
2018-12-27T10:18:22.900Z,14.30
2018-12-27T10:20:51.831Z,20.87
2018-12-27T10:23:20.731Z,16.50
2018-12-27T10:25:49.616Z,15.83
2018-12-27T10:28:18.550Z,18.83
2018-12-27T10:30:48.487Z,21.93
2018-12-27T10:33:17.510Z,27.63
2018-12-27T10:35:46.326Z,15.93
2018-12-27T10:38:15.333Z,21.03
2018-12-27T10:40:45.198Z,17.90
2018-12-27T10:43:14.119Z,25.20
2018-12-27T10:45:43.239Z,17.90
2018-12-27T10:48:12.298Z,18.47
2018-12-27T10:50:41.286Z,25.80
2018-12-27T10:53:10.197Z,20.40
2018-12-27T10:55:39.145Z,15.73
2018-12-27T10:58:08.151Z,16.40
2018-12-27T11:00:38.371Z,19.67
2018-12-27T11:03:07.281Z,29.30
2018-12-27T11:05:38.295Z,19.47
2018-12-27T11:08:08.820Z,21.60
2018-12-27T11:10:37.837Z,27.20
2018-12-27T11:13:06.809Z,27.23
2018-12-27T11:15:38.172Z,19.33
2018-12-27T11:18:07.210Z,16.20
2018-12-27T11:20:36.269Z,16.50
2018-12-27T11:23:05.170Z,20.07
2018-12-27T11:25:34.040Z,19.50
2018-12-27T11:28:03.655Z,20.17
2018-12-27T11:30:33.004Z,19.67
2018-12-27T11:33:02.268Z,14.20
2018-12-27T11:35:31.276Z,17.03
2018-12-27T11:38:01.575Z,14.67
2018-12-27T11:40:32.739Z,12.37
2018-12-27T11:43:01.666Z,13.20
2018-12-27T11:45:30.646Z,16.80
2018-12-27T11:48:00.297Z,13.77
2018-12-27T11:50:29.202Z,12.73
2018-12-27T11:52:58.173Z,14.77
2018-12-27T11:55:27.087Z,14.63
2018-12-27T11:57:56.587Z,15.50
2018-12-27T12:00:25.571Z,18.03
2018-12-27T12:02:54.526Z,12.60
2018-12-27T12:05:23.795Z,12.83
2018-12-27T12:07:52.734Z,11.60
2018-12-27T12:10:21.712Z,17.00
2018-12-27T12:12:50.618Z,11.97
2018-12-27T12:15:20.311Z,16.20
2018-12-27T12:17:49.325Z,17.20
2018-12-27T12:20:18.419Z,13.23
2018-12-27T12:22:48.848Z,16.53
2018-12-27T12:25:17.810Z,15.70
2018-12-27T12:27:48.114Z,19.53
2018-12-27T12:30:18.209Z,13.88
2018-12-27T12:32:48.664Z,18.00
2018-12-27T12:35:17.639Z,16.37
2018-12-27T12:37:50.125Z,21.00
2018-12-27T12:40:19.067Z,17.33
2018-12-27T12:42:47.920Z,18.60
2018-12-27T12:45:16.880Z,16.80
2018-12-27T12:47:45.906Z,20.10
2018-12-27T12:50:14.977Z,18.33
2018-12-27T12:52:43.950Z,15.47
2018-12-27T12:55:12.873Z,11.03
2018-12-27T12:57:43.098Z,14.50
2018-12-27T13:00:12.340Z,16.27
2018-12-27T13:02:41.285Z,12.33
2018-12-27T13:05:10.313Z,8.93
2018-12-27T13:07:39.599Z,9.40
2018-12-27T13:10:09.221Z,9.90
2018-12-27T13:12:38.227Z,11.30
2018-12-27T13:15:08.414Z,12.33
2018-12-27T13:17:37.336Z,10.03
2018-12-27T13:20:08.414Z,14.80
2018-12-27T13:22:37.315Z,13.53
2018-12-27T13:25:06.347Z,10.57
2018-12-27T13:27:35.274Z,11.17
2018-12-27T13:30:05.494Z,13.00
2018-12-27T13:32:35.761Z,11.90
2018-12-27T13:35:05.592Z,19.63
2018-12-27T13:37:35.299Z,16.10
2018-12-27T13:40:04.874Z,14.20
2018-12-27T13:42:33.825Z,15.73
2018-12-27T13:45:02.970Z,13.33
2018-12-27T13:47:32.036Z,15.03
2018-12-27T13:50:02.412Z,15.13
2018-12-27T13:52:31.767Z,20.33
2018-12-27T13:55:01.065Z,13.07
2018-12-27T13:57:30.010Z,18.77
2018-12-27T13:59:59.008Z,13.20
2018-12-27T14:02:27.982Z,19.60
2018-12-27T14:04:57.528Z,20.60
2018-12-27T14:07:26.497Z,26.90
2018-12-27T14:09:56.573Z,15.50
2018-12-27T14:12:25.526Z,13.63
2018-12-27T14:14:55.182Z,12.80
2018-12-27T14:17:24.072Z,10.80
2018-12-27T14:19:55.416Z,17.93
2018-12-27T14:22:25.926Z,11.30
2018-12-27T14:24:58.056Z,13.67
2018-12-27T14:27:25.563Z,15.03
2018-12-27T14:29:54.555Z,11.67
2018-12-27T14:32:24.307Z,11.33
2018-12-27T14:34:54.729Z,19.83
2018-12-27T14:37:23.845Z,19.87
2018-12-27T14:39:53.301Z,14.70
2018-12-27T14:42:22.186Z,14.37
2018-12-27T14:44:51.065Z,14.43
2018-12-27T14:47:20.204Z,12.70
2018-12-27T14:49:50.765Z,14.93
2018-12-27T14:52:19.681Z,15.43
2018-12-27T14:54:48.486Z,29.53
2018-12-27T14:57:18.032Z,17.57
2018-12-27T14:59:48.335Z,23.27
2018-12-27T15:02:17.262Z,23.07
2018-12-27T15:04:46.973Z,25.23
2018-12-27T15:07:17.455Z,24.47
2018-12-27T15:09:46.435Z,17.30
2018-12-27T15:12:15.356Z,23.53
2018-12-27T15:14:44.265Z,26.73
2018-12-27T15:17:13.375Z,21.80
2018-12-27T15:19:43.719Z,45.13
2018-12-27T15:22:12.667Z,33.20
2018-12-27T15:24:41.699Z,28.60
2018-12-27T15:27:12.086Z,22.20
2018-12-27T15:29:41.077Z,29.77
2018-12-27T15:32:09.963Z,18.23
2018-12-27T15:34:38.900Z,24.53
2018-12-27T15:37:07.980Z,35.87
2018-12-27T15:39:36.920Z,28.20
2018-12-27T15:42:05.972Z,24.07
2018-12-27T15:44:34.998Z,43.97
2018-12-27T15:47:03.888Z,16.43
2018-12-27T15:49:34.012Z,25.20
2018-12-27T15:52:03.258Z,36.17
2018-12-27T15:54:32.933Z,42.47
2018-12-27T15:57:01.992Z,40.10
2018-12-27T15:59:33.026Z,42.77
2018-12-27T16:02:02.224Z,32.03
2018-12-27T16:04:31.105Z,39.10
2018-12-27T16:07:01.908Z,30.03
2018-12-27T16:09:30.789Z,27.60
2018-12-27T16:11:59.685Z,37.00
2018-12-27T16:14:29.137Z,45.70
2018-12-27T16:16:59.840Z,65.47
2018-12-27T16:19:29.543Z,59.93
2018-12-27T16:21:59.371Z,41.20
2018-12-27T16:24:28.421Z,31.93
2018-12-27T16:26:57.522Z,39.10
2018-12-27T16:29:26.502Z,26.17
2018-12-27T16:31:57.006Z,30.30
2018-12-27T16:34:26.419Z,32.63
2018-12-27T16:36:56.032Z,31.27
2018-12-27T16:39:25.077Z,33.70
2018-12-27T16:41:56.403Z,29.23
2018-12-27T16:44:25.407Z,31.27
2018-12-27T16:46:54.477Z,31.30
2018-12-27T16:49:23.924Z,34.73
2018-12-27T16:51:52.853Z,48.30
2018-12-27T16:54:23.521Z,40.03
2018-12-27T16:56:53.098Z,42.67
2018-12-27T16:59:24.750Z,36.77
2018-12-27T17:01:53.683Z,34.47
2018-12-27T17:04:22.609Z,31.73
2018-12-27T17:06:51.507Z,36.73
2018-12-27T17:09:20.440Z,41.20
2018-12-27T17:11:49.351Z,36.83
2018-12-27T17:14:19.149Z,35.40
2018-12-27T17:16:48.077Z,31.07
2018-12-27T17:19:16.946Z,43.00
2018-12-27T17:21:45.873Z,34.20
2018-12-27T17:24:14.898Z,36.93
2018-12-27T17:26:43.824Z,38.47
2018-12-27T17:29:12.681Z,34.70
2018-12-27T17:31:43.892Z,40.97
2018-12-27T17:34:12.787Z,38.87
2018-12-27T17:36:41.651Z,43.10
2018-12-27T17:39:10.766Z,51.33
2018-12-27T17:41:41.243Z,51.13
2018-12-27T17:44:10.226Z,45.50
2018-12-27T17:46:39.075Z,40.77
2018-12-27T17:49:08.127Z,35.33
2018-12-27T17:51:38.625Z,27.13
2018-12-27T17:54:07.863Z,31.40
2018-12-27T17:56:36.841Z,22.67
2018-12-27T17:59:07.433Z,29.07
2018-12-27T18:01:36.647Z,30.83
2018-12-27T18:04:05.585Z,27.63
2018-12-27T18:06:34.551Z,31.07
2018-12-27T18:09:06.101Z,35.97
2018-12-27T18:11:34.979Z,26.17
2018-12-27T18:14:03.899Z,27.67
2018-12-27T18:16:34.469Z,28.27
2018-12-27T18:19:03.432Z,29.63
2018-12-27T18:21:32.292Z,29.87
2018-12-27T18:24:01.252Z,35.17
2018-12-27T18:26:30.180Z,36.63
2018-12-27T18:28:59.248Z,38.07
2018-12-27T18:31:29.224Z,32.10
2018-12-27T18:33:58.149Z,36.63
2018-12-27T18:36:27.162Z,31.87
2018-12-27T18:38:56.320Z,29.80
2018-12-27T18:41:25.614Z,31.23
2018-12-27T18:43:55.233Z,30.50
2018-12-27T18:46:24.760Z,39.53
2018-12-27T18:48:53.917Z,41.70
2018-12-27T18:51:23.050Z,35.50
2018-12-27T18:53:52.400Z,35.80
2018-12-27T18:56:21.962Z,45.17
2018-12-27T18:58:50.985Z,40.00
2018-12-27T19:01:20.190Z,34.10
2018-12-27T19:03:51.570Z,39.53
2018-12-27T19:06:20.479Z,40.97
2018-12-27T19:08:50.559Z,51.90
2018-12-27T19:11:22.622Z,36.80
2018-12-27T19:13:51.526Z,47.90
2018-12-27T19:16:20.800Z,41.67
2018-12-27T19:18:49.859Z,37.60
2018-12-27T19:21:18.789Z,37.13
2018-12-27T19:23:49.117Z,37.50
2018-12-27T19:26:19.581Z,42.03
2018-12-27T19:28:49.665Z,41.47
2018-12-27T19:31:20.614Z,54.20
2018-12-27T19:33:49.555Z,54.77
2018-12-27T19:36:18.436Z,43.10
2018-12-27T19:38:47.626Z,47.60
2018-12-27T19:41:16.543Z,52.47
2018-12-27T19:43:47.414Z,45.00
2018-12-27T19:46:16.514Z,58.43
2018-12-27T19:48:45.412Z,44.30
2018-12-27T19:51:14.357Z,50.17
2018-12-27T19:53:43.858Z,49.13
2018-12-27T19:56:12.998Z,39.93
2018-12-27T19:58:43.061Z,39.20
2018-12-27T20:01:12.132Z,46.23
2018-12-27T20:03:41.156Z,44.00
2018-12-27T20:06:10.092Z,30.97
2018-12-27T20:08:39.071Z,36.17
2018-12-27T20:11:08.028Z,40.20
2018-12-27T20:13:36.941Z,35.13
2018-12-27T20:16:06.783Z,30.70
2018-12-27T20:18:35.648Z,39.53
2018-12-27T20:21:05.493Z,45.00
2018-12-27T20:23:35.793Z,40.90
2018-12-27T20:26:04.704Z,41.80
2018-12-27T20:28:33.835Z,54.17
2018-12-27T20:31:04.750Z,47.53
2018-12-27T20:33:33.617Z,54.97
2018-12-27T20:36:02.956Z,56.30
2018-12-27T20:38:31.888Z,41.77
2018-12-27T20:41:00.782Z,38.43
2018-12-27T20:43:29.700Z,39.50
2018-12-27T20:45:59.875Z,35.97
2018-12-27T20:48:28.785Z,35.47
2018-12-27T20:50:57.863Z,39.23
2018-12-27T20:53:27.078Z,35.10
2018-12-27T20:55:56.099Z,42.67
2018-12-27T20:58:25.016Z,43.00
2018-12-27T21:00:53.881Z,36.90
2018-12-27T21:03:22.889Z,39.63
2018-12-27T21:05:51.782Z,39.93
2018-12-27T21:08:20.735Z,43.13
2018-12-27T21:10:49.618Z,40.53
2018-12-27T21:13:18.688Z,41.00
2018-12-27T21:15:47.798Z,39.27
2018-12-27T21:18:16.788Z,42.67
2018-12-27T21:20:45.688Z,39.83
2018-12-27T21:23:15.149Z,47.20
2018-12-27T21:25:44.249Z,38.23
2018-12-27T21:28:13.298Z,36.40
2018-12-27T21:30:42.566Z,38.30
2018-12-27T21:33:12.905Z,45.70
2018-12-27T21:35:41.775Z,36.90
2018-12-27T21:38:10.673Z,36.47
2018-12-27T21:40:40.619Z,42.00
2018-12-27T21:43:09.710Z,57.73
2018-12-27T21:45:38.668Z,100.00
2018-12-27T21:48:09.320Z,74.40
2018-12-27T21:50:39.910Z,63.50
2018-12-27T21:53:08.903Z,62.47
2018-12-27T21:55:37.768Z,55.63
2018-12-27T21:58:06.655Z,54.53
2018-12-27T22:00:38.378Z,81.93
2018-12-27T22:03:08.432Z,72.47
2018-12-27T22:05:38.910Z,67.73
2018-12-27T22:08:07.867Z,56.83
2018-12-27T22:10:39.658Z,56.73
2018-12-27T22:13:09.282Z,52.63
2018-12-27T22:15:38.930Z,44.13
2018-12-27T22:18:07.844Z,44.93
2018-12-27T22:20:38.837Z,44.17
2018-12-27T22:23:08.517Z,47.60
2018-12-27T22:25:38.163Z,47.00
2018-12-27T22:28:07.071Z,48.87
2018-12-27T22:30:36.252Z,57.33
2018-12-27T22:33:05.773Z,57.07
2018-12-27T22:35:34.715Z,55.27
2018-12-27T22:38:04.875Z,56.30
2018-12-27T22:40:33.692Z,54.17
2018-12-27T22:43:03.024Z,46.63
2018-12-27T22:45:33.580Z,52.50
2018-12-27T22:48:02.502Z,50.53
2018-12-27T22:50:31.471Z,49.63
2018-12-27T22:53:00.593Z,55.07
2018-12-27T22:55:30.418Z,45.80
2018-12-27T22:57:59.407Z,42.37
2018-12-27T23:00:30.102Z,58.07
2018-12-27T23:02:59.656Z,43.40
2018-12-27T23:05:28.636Z,40.57
2018-12-27T23:07:57.626Z,39.87
2018-12-27T23:10:29.240Z,41.17
2018-12-27T23:12:58.172Z,48.40
2018-12-27T23:15:28.298Z,54.40
2018-12-27T23:17:58.517Z,44.90
2018-12-27T23:20:27.813Z,44.57
2018-12-27T23:22:56.845Z,44.50
2018-12-27T23:25:27.288Z,47.43
2018-12-27T23:27:56.184Z,50.33
2018-12-27T23:30:26.094Z,44.93
2018-12-27T23:32:56.416Z,48.57
2018-12-27T23:35:25.427Z,47.10
2018-12-27T23:37:54.821Z,42.77
2018-12-27T23:40:23.823Z,46.33
2018-12-27T23:42:52.693Z,47.13
2018-12-27T23:45:21.578Z,51.10
2018-12-27T23:47:52.899Z,51.40
2018-12-27T23:50:21.986Z,55.70
2018-12-27T23:52:50.945Z,50.17
2018-12-27T23:55:21.653Z,53.50
2018-12-27T23:57:50.499Z,50.50
